»·PEaware :: UAL533 KATL-KDEN

UAL533 :: KATL-KDEN

FLIGHT INFORMATION

Flight Status: Arrived
Operator:
United Airlines
More flights by this operator :: More flights under this callsign
Pilot: David Y. (25336)
Aircraft: AIRBUS A320
(A320)
More flights by this aircraft type
Origin: KATL Hartsfield-Jackson Atlanta
United States
Destination: KDEN Denver Intl
United States
More flights between these airports :: More routes between these airports
Route: NASSA2 YAALL J14 KOMMA/N0466F360 J14 PNH ZIGEE ZPLYN3
File this flight plan on PilotEdge
Remarks:
Altitude:
(Current/Filed)
36,000ft
Speed:
(Current/Filed)
473kts
Departed: 25-Aug-19 05:23 AM
Arrived: 25-Aug-19 08:43 AM
Distance/Time
Traveled:
1040nm/3:19
Distance/Time
To Go:
Arrived

Flight Plot

Page will automatically refresh every two minutes.

Flight plan parsing failed; only flown route is shown


Map Options




Map Legend


Flown Route
Filed Route
Departure Airport
Arrival Airport
Navaid (VOR, NDB)
Fix

Horizontal Profiles

Position Reports

Time Latitude Longitude Heading Altitude Ground
Speed
25-Aug-19 04:47 33.643809 -84.441989 269 1034ft 0kts
25-Aug-19 04:48 33.643809 -84.441989 269 1034ft 0kts
25-Aug-19 04:49 33.643809 -84.441989 269 1034ft 0kts
25-Aug-19 04:50 33.643809 -84.441989 269 1034ft 0kts
25-Aug-19 04:51 33.643809 -84.441989 269 1034ft 0kts
25-Aug-19 04:52 33.643809 -84.441989 269 1034ft 0kts
25-Aug-19 04:53 33.643809 -84.441989 269 1034ft 0kts
25-Aug-19 04:54 33.643809 -84.441989 269 1034ft 0kts
25-Aug-19 04:55 33.643809 -84.441989 269 1034ft 0kts
25-Aug-19 04:56 33.643809 -84.441989 269 1034ft 0kts
25-Aug-19 04:57 33.643809 -84.441989 269 1034ft 0kts
25-Aug-19 04:58 33.643809 -84.441989 269 1034ft 0kts
25-Aug-19 04:59 33.643809 -84.441989 269 1034ft 0kts
25-Aug-19 05:00 33.643809 -84.441989 269 1034ft 0kts
25-Aug-19 05:01 33.643809 -84.441989 269 1034ft 0kts
25-Aug-19 05:02 33.643809 -84.441989 269 1034ft 0kts
25-Aug-19 05:03 33.643809 -84.441989 269 1034ft 0kts
25-Aug-19 05:05 33.643809 -84.441989 269 1034ft 0kts
25-Aug-19 05:06 33.643809 -84.441989 269 1034ft 0kts
25-Aug-19 05:07 33.643809 -84.441989 269 1034ft 0kts
25-Aug-19 05:08 33.643809 -84.441989 269 1034ft 0kts
25-Aug-19 05:09 33.643809 -84.441989 269 1034ft 0kts
25-Aug-19 05:10 33.643809 -84.441988 269 1034ft 0kts
25-Aug-19 05:11 33.643815 -84.441549 269 1034ft 2kts
25-Aug-19 05:12 33.644051 -84.441189 181 1034ft 1kts
25-Aug-19 05:13 33.644116 -84.441194 178 1034ft 0kts
25-Aug-19 05:14 33.644116 -84.441194 178 1034ft 0kts
25-Aug-19 05:15 33.644116 -84.441194 178 1034ft 0kts
25-Aug-19 05:16 33.644116 -84.441194 178 1034ft 0kts
25-Aug-19 05:17 33.644116 -84.441194 178 1034ft 0kts
25-Aug-19 05:18 33.644116 -84.441194 178 1034ft 0kts
25-Aug-19 05:19 33.644116 -84.441194 178 1034ft 0kts
25-Aug-19 05:20 33.644020 -84.441117 77 1034ft 2kts
25-Aug-19 05:21 33.645068 -84.439422 83 1034ft 16kts
25-Aug-19 05:22 33.646760 -84.437710 79 1034ft 6kts
25-Aug-19 05:23 33.646803 -84.418366 90 1063ft 166kts
25-Aug-19 05:24 33.646847 -84.379425 73 3086ft 169kts
25-Aug-19 05:24 33.660076 -84.341944 67 3674ft 236kts
25-Aug-19 05:26 33.694042 -84.282859 22 5561ft 283kts
25-Aug-19 05:26 33.742583 -84.279628 0 7535ft 285kts
25-Aug-19 05:27 33.795558 -84.296730 311 9571ft 292kts
25-Aug-19 05:29 33.808842 -84.377663 271 11178ft 326kts
25-Aug-19 05:29 33.809119 -84.437314 271 11749ft 356kts
25-Aug-19 05:31 33.809663 -84.521595 271 12322ft 389kts
25-Aug-19 05:31 33.810045 -84.584085 270 13050ft 397kts
25-Aug-19 05:32 33.810393 -84.654964 270 13978ft 401kts
25-Aug-19 05:33 33.810779 -84.722163 270 14770ft 406kts
25-Aug-19 05:34 33.811222 -84.807656 270 15767ft 411kts
25-Aug-19 05:35 33.811491 -84.885797 269 16589ft 416kts
25-Aug-19 05:36 33.811800 -84.976518 270 17461ft 422kts
25-Aug-19 05:37 33.812066 -85.079890 270 18438ft 426kts
25-Aug-19 05:38 33.812293 -85.236595 269 19716ft 434kts
25-Aug-19 05:39 33.812311 -85.386240 269 20843ft 441kts
25-Aug-19 05:40 33.812111 -85.557206 269 22032ft 446kts
25-Aug-19 05:41 33.811749 -85.706762 269 22943ft 452kts
25-Aug-19 05:42 33.811079 -85.885007 269 23948ft 457kts
25-Aug-19 05:43 33.810360 -86.026281 269 24611ft 462kts
25-Aug-19 05:44 33.809434 -86.175081 269 25311ft 464kts
25-Aug-19 05:45 33.808089 -86.353892 269 26402ft 461kts
25-Aug-19 05:46 33.806515 -86.529369 269 27501ft 458kts
25-Aug-19 05:47 33.804950 -86.681543 268 28463ft 454kts
25-Aug-19 05:48 33.803088 -86.842544 268 29484ft 451kts
25-Aug-19 05:49 33.800869 -87.014487 268 30552ft 447kts
25-Aug-19 05:50 33.798303 -87.193734 268 31583ft 444kts
25-Aug-19 05:51 33.795435 -87.375508 268 32600ft 440kts
25-Aug-19 05:52 33.807369 -87.548054 282 33391ft 440kts
25-Aug-19 05:53 33.838260 -87.696099 282 34065ft 437kts
25-Aug-19 05:54 33.872064 -87.859602 282 34933ft 431kts
25-Aug-19 05:55 33.906879 -88.029275 282 35677ft 426kts
25-Aug-19 05:56 33.941854 -88.201038 282 36087ft 423kts
25-Aug-19 05:57 33.976670 -88.373337 282 36090ft 423kts
25-Aug-19 05:58 34.011473 -88.546906 282 36089ft 424kts
25-Aug-19 05:59 34.039153 -88.685927 282 36091ft 424kts
25-Aug-19 06:00 34.070938 -88.846661 281 36097ft 424kts
25-Aug-19 06:01 34.103897 -89.014583 281 36073ft 424kts
25-Aug-19 06:02 34.141295 -89.206712 281 36072ft 423kts
25-Aug-19 06:03 34.179936 -89.407050 281 36073ft 421kts
25-Aug-19 06:04 34.217962 -89.606042 281 36071ft 420kts
25-Aug-19 06:05 34.248076 -89.764973 281 36082ft 420kts
25-Aug-19 06:06 34.283390 -89.952883 281 36080ft 419kts
25-Aug-19 06:07 34.316467 -90.130445 281 36053ft 419kts
25-Aug-19 06:08 34.344815 -90.283934 281 36030ft 420kts
25-Aug-19 06:09 34.370307 -90.422950 281 36038ft 421kts
25-Aug-19 06:10 34.395596 -90.561782 280 36047ft 421kts
25-Aug-19 06:11 34.420230 -90.697951 280 36049ft 422kts
25-Aug-19 06:12 34.445499 -90.838547 280 36058ft 422kts
25-Aug-19 06:13 34.470387 -90.977962 280 36059ft 422kts
25-Aug-19 06:14 34.495085 -91.117270 279 36041ft 421kts
25-Aug-19 06:15 34.519575 -91.256369 279 36042ft 420kts
25-Aug-19 06:16 34.543847 -91.395276 279 36035ft 420kts
25-Aug-19 06:17 34.567991 -91.534622 279 36038ft 419kts
25-Aug-19 06:18 34.590375 -91.664696 279 36043ft 419kts
25-Aug-19 06:19 34.615308 -91.810616 279 36049ft 419kts
25-Aug-19 06:20 34.638829 -91.949295 279 36047ft 418kts
25-Aug-19 06:21 34.662171 -92.087919 279 36030ft 418kts
25-Aug-19 06:22 34.684449 -92.227134 278 36022ft 419kts
25-Aug-19 06:23 34.704756 -92.367432 278 36027ft 420kts
25-Aug-19 06:24 34.724880 -92.507661 278 36032ft 421kts
25-Aug-19 06:25 34.744940 -92.648637 278 36030ft 422kts
25-Aug-19 06:26 34.764626 -92.788184 277 36035ft 424kts
25-Aug-19 06:27 34.784322 -92.929014 277 36033ft 425kts
25-Aug-19 06:28 34.804014 -93.071062 277 36018ft 425kts
25-Aug-19 06:29 34.840468 -93.207462 289 36019ft 430kts
25-Aug-19 06:30 34.885189 -93.342902 289 36018ft 430kts
25-Aug-19 06:31 34.929603 -93.478257 290 36008ft 430kts
25-Aug-19 06:32 34.974014 -93.614240 290 36005ft 430kts
25-Aug-19 06:33 35.017806 -93.748937 289 36014ft 431kts
25-Aug-19 06:34 35.061967 -93.885378 290 36012ft 432kts
25-Aug-19 06:35 35.104785 -94.018273 290 36011ft 433kts
25-Aug-19 06:36 35.149479 -94.157608 290 36010ft 433kts
25-Aug-19 06:37 35.193541 -94.295620 291 36005ft 434kts
25-Aug-19 06:38 35.237364 -94.433521 291 36008ft 434kts
25-Aug-19 06:39 35.281040 -94.571605 291 36008ft 434kts
25-Aug-19 06:40 35.322647 -94.703744 290 36020ft 435kts
25-Aug-19 06:41 35.367441 -94.846680 290 36029ft 435kts
25-Aug-19 06:42 35.410862 -94.985894 291 36024ft 434kts
25-Aug-19 06:43 35.453864 -95.124439 291 36016ft 434kts
25-Aug-19 06:44 35.496919 -95.263802 291 36013ft 434kts
25-Aug-19 06:45 35.539772 -95.403190 291 36010ft 435kts
25-Aug-19 06:46 35.582338 -95.542306 292 36013ft 435kts
25-Aug-19 06:47 35.622648 -95.674670 291 36014ft 435kts
25-Aug-19 06:48 35.666957 -95.820872 291 36012ft 436kts
25-Aug-19 06:49 35.709203 -95.960966 291 36018ft 437kts
25-Aug-19 06:50 35.751496 -96.101913 292 36035ft 437kts
25-Aug-19 06:51 35.793617 -96.242977 292 36049ft 437kts
25-Aug-19 06:52 35.835538 -96.384076 292 36045ft 436kts
25-Aug-19 06:53 35.877366 -96.525564 292 36041ft 436kts
25-Aug-19 06:54 35.917129 -96.660728 291 36041ft 436kts
25-Aug-19 06:55 35.959595 -96.805807 291 36043ft 436kts
25-Aug-19 06:56 36.000662 -96.946825 291 36042ft 435kts
25-Aug-19 06:57 36.041808 -97.088831 290 36018ft 438kts
25-Aug-19 06:58 36.082808 -97.231072 290 36034ft 439kts
25-Aug-19 06:59 36.123188 -97.371870 290 36038ft 440kts
25-Aug-19 07:00 36.164147 -97.515437 290 36044ft 441kts
25-Aug-19 07:01 36.203810 -97.655180 290 36040ft 441kts
25-Aug-19 07:02 36.243065 -97.794197 290 36037ft 442kts
25-Aug-19 07:03 36.283667 -97.938731 290 36038ft 442kts
25-Aug-19 07:04 36.324101 -98.083435 290 36046ft 442kts
25-Aug-19 07:05 36.364101 -98.227350 290 36052ft 441kts
25-Aug-19 07:06 36.404039 -98.371825 290 36056ft 440kts
25-Aug-19 07:07 36.443703 -98.516075 290 36047ft 439kts
25-Aug-19 07:08 36.482146 -98.656638 289 36048ft 438kts
25-Aug-19 07:09 36.521145 -98.799994 289 36043ft 437kts
25-Aug-19 07:10 36.559866 -98.943098 289 36032ft 435kts
25-Aug-19 07:11 36.598396 -99.086274 289 36026ft 434kts
25-Aug-19 07:12 36.636640 -99.229168 289 36029ft 433kts
25-Aug-19 07:13 36.674293 -99.370617 289 36029ft 432kts
25-Aug-19 07:14 36.712040 -99.513199 289 36026ft 431kts
25-Aug-19 07:15 36.749157 -99.654167 289 36024ft 431kts
25-Aug-19 07:16 36.786478 -99.796705 290 36019ft 428kts
25-Aug-19 07:17 36.823328 -99.938213 290 36015ft 426kts
25-Aug-19 07:18 36.859844 -100.079224 291 36003ft 423kts
25-Aug-19 07:19 36.895973 -100.219467 291 36004ft 423kts
25-Aug-19 07:20 36.931881 -100.359656 291 36009ft 423kts
25-Aug-19 07:21 36.967545 -100.499666 291 35998ft 422kts
25-Aug-19 07:22 37.002972 -100.639517 292 35999ft 422kts
25-Aug-19 07:24 37.038144 -100.779130 291 36005ft 422kts
25-Aug-19 07:25 37.073049 -100.918469 291 36005ft 422kts
25-Aug-19 07:26 37.107439 -101.056513 291 36001ft 422kts
25-Aug-19 07:27 37.142633 -101.198579 292 36003ft 422kts
25-Aug-19 07:28 37.177159 -101.338766 292 36005ft 422kts
25-Aug-19 07:29 37.211665 -101.479675 292 36001ft 421kts
25-Aug-19 07:30 37.245888 -101.620222 292 35994ft 420kts
25-Aug-19 07:31 37.274278 -101.737448 292 35987ft 421kts
25-Aug-19 07:32 37.296068 -101.827815 292 35993ft 420kts
25-Aug-19 07:33 37.315163 -101.907276 292 35992ft 420kts
25-Aug-19 07:34 37.336618 -101.996825 292 35991ft 420kts
25-Aug-19 07:35 37.357875 -102.085939 292 36004ft 420kts
25-Aug-19 07:36 37.379934 -102.178735 292 36023ft 420kts
25-Aug-19 07:37 37.401516 -102.269818 292 36038ft 420kts
25-Aug-19 07:38 37.423604 -102.363571 292 36039ft 420kts
25-Aug-19 07:39 37.437259 -102.421663 292 36043ft 419kts
25-Aug-19 07:40 37.458566 -102.512552 292 36038ft 419kts
25-Aug-19 07:41 37.480299 -102.605636 292 36033ft 420kts
25-Aug-19 07:42 37.502292 -102.686997 301 36034ft 414kts
25-Aug-19 07:42 37.538957 -102.751000 318 36042ft 406kts
25-Aug-19 07:44 37.610633 -102.807407 340 36058ft 402kts
25-Aug-19 07:45 37.680800 -102.830565 345 36057ft 402kts
25-Aug-19 07:45 37.738888 -102.848879 345 36050ft 401kts
25-Aug-19 07:46 37.807366 -102.870489 344 36027ft 400kts
25-Aug-19 07:47 37.878966 -102.893087 345 35999ft 399kts
25-Aug-19 07:48 37.948180 -102.914959 345 35986ft 399kts
25-Aug-19 07:50 38.030125 -102.940915 344 35999ft 399kts
25-Aug-19 07:50 38.089643 -102.959809 344 36011ft 398kts
25-Aug-19 07:51 38.150173 -102.979058 344 36013ft 398kts
25-Aug-19 07:52 38.229995 -103.004475 344 36018ft 398kts
25-Aug-19 07:53 38.302191 -103.027508 344 36030ft 398kts
25-Aug-19 07:54 38.372836 -103.050140 344 36040ft 398kts
25-Aug-19 07:55 38.443640 -103.072815 344 36049ft 397kts
25-Aug-19 07:56 38.513974 -103.098818 335 36051ft 396kts
25-Aug-19 07:57 38.574056 -103.151621 316 35953ft 401kts
25-Aug-19 07:58 38.622392 -103.219085 315 34867ft 397kts
25-Aug-19 07:59 38.671670 -103.288204 315 33565ft 400kts
25-Aug-19 08:00 38.719425 -103.355185 314 32314ft 406kts
25-Aug-19 08:01 38.767426 -103.422512 314 31070ft 413kts
25-Aug-19 08:02 38.811676 -103.484651 314 29942ft 419kts
25-Aug-19 08:03 38.861642 -103.555227 313 28809ft 424kts
25-Aug-19 08:04 38.910243 -103.624061 313 28189ft 429kts
25-Aug-19 08:05 38.949043 -103.679198 312 27253ft 422kts
25-Aug-19 08:06 38.998782 -103.749908 312 25238ft 425kts
25-Aug-19 08:07 39.048431 -103.820668 311 23673ft 417kts
25-Aug-19 08:08 39.096217 -103.888924 311 22972ft 391kts
25-Aug-19 08:09 39.130981 -103.938708 311 22613ft 367kts
25-Aug-19 08:10 39.172308 -103.998021 311 22205ft 338kts
25-Aug-19 08:11 39.210425 -104.052737 311 21848ft 310kts
25-Aug-19 08:12 39.245996 -104.103795 311 21526ft 285kts
25-Aug-19 08:13 39.285309 -104.144884 325 20880ft 288kts
25-Aug-19 08:14 39.329259 -104.180554 325 20015ft 306kts
25-Aug-19 08:15 39.374179 -104.217067 325 19095ft 308kts
25-Aug-19 08:16 39.414565 -104.249940 325 18487ft 305kts
25-Aug-19 08:17 39.459041 -104.286170 324 18054ft 303kts
25-Aug-19 08:18 39.497846 -104.318192 325 17559ft 298kts
25-Aug-19 08:19 39.540499 -104.353032 326 16500ft 296kts
25-Aug-19 08:20 39.578393 -104.384220 326 15578ft 293kts
25-Aug-19 08:21 39.619409 -104.417898 326 14714ft 289kts
25-Aug-19 08:22 39.661673 -104.452554 326 14265ft 291kts
25-Aug-19 08:23 39.703719 -104.487181 326 13650ft 286kts
25-Aug-19 08:24 39.745051 -104.519617 338 13024ft 283kts
25-Aug-19 08:25 39.793981 -104.523189 357 12180ft 282kts
25-Aug-19 08:26 39.842769 -104.522238 357 11486ft 271kts
25-Aug-19 08:27 39.888763 -104.521996 357 11065ft 258kts
25-Aug-19 08:28 39.933012 -104.521798 357 10152ft 261kts
25-Aug-19 08:29 39.981270 -104.520350 359 9200ft 264kts
25-Aug-19 08:30 40.028717 -104.518969 352 8543ft 255kts
25-Aug-19 08:31 40.070897 -104.532646 315 7906ft 242kts
25-Aug-19 08:32 40.081623 -104.581363 270 7437ft 202kts
25-Aug-19 08:33 40.072189 -104.625628 231 7015ft 195kts
25-Aug-19 08:34 40.048727 -104.651015 238 7007ft 196kts
25-Aug-19 08:35 40.031575 -104.680980 206 7006ft 202kts
25-Aug-19 08:36 39.998991 -104.685749 181 6942ft 165kts
25-Aug-19 08:37 39.971186 -104.685922 184 6964ft 164kts
25-Aug-19 08:38 39.942446 -104.686274 184 6335ft 159kts
25-Aug-19 08:39 39.914589 -104.686599 183 5807ft 158kts
25-Aug-19 08:40 39.888972 -104.686942 179 5440ft 134kts
25-Aug-19 08:41 39.875621 -104.687032 178 5440ft 48kts
25-Aug-19 08:42 39.872127 -104.685674 149 5440ft 0kts
25-Aug-19 08:43 39.871015 -104.684153 110 5440ft 11kts
25-Aug-19 08:44 39.867570 -104.683877 181 5440ft 22kts
25-Aug-19 08:45 39.863621 -104.683922 180 5440ft 20kts
25-Aug-19 08:46 39.859596 -104.683956 179 5440ft 22kts
25-Aug-19 08:47 39.855985 -104.683604 124 5440ft 9kts
25-Aug-19 08:48 39.855938 -104.680953 89 5440ft 17kts
25-Aug-19 08:49 39.855482 -104.677775 151 5440ft 9kts
25-Aug-19 08:50 39.854829 -104.676265 154 5440ft 7kts
25-Aug-19 08:51 39.854442 -104.676022 154 5440ft 0kts
25-Aug-19 08:52 39.854442 -104.676022 154 5440ft 0kts

Navigation Log

Ident Type
Flight plan parsing failed, navigation log unavailable